Terminal Aerodrome Forecast
Issued by NWS Omaha/Valley, NE

Home | Current Version | Previous Version | Graphics & Text | Print | Product List | Glossary On
Versions: 1 2 3 4 5 6 7 8 9 10 11 12 13 14 15 16 17 18 19 20 21 22 23 24 25 26 27 28
000
FTUS43 KOAX 031725
TAFOFK
TAF
KOFK 031725Z 0318/0418 17009KT P6SM SKC
     FM031900 17012G18KT P6SM SCT250
     FM040000 16010KT P6SM SCT120 SCT250
     FM041700 17014G21KT P6SM BKN250=

USA.gov is the U.S. government's official web portal to all federal, state and local government web resources and services.